Time;durP1;ratioP1;P1;durP2;ratioP2;P2;SDS_P1;SDS_P2;PMS_P1;PMS_P2;Temp;Humidity;BMP_temperature;BMP_pressure;BME280_temperature;BME280_humidity;BME280_pressure;Samples;Min_cycle;Max_cycle;Signal;HPM_P1;HPM_P2
2021/08/06 00:00:32;;;;;;;598.47;14.98;;;;;;;16.87;68.41;98848.00;10522981;28;20131;-61
2021/08/06 00:05:34;;;;;;;670.83;20.17;;;;;;;16.95;68.03;98853.34;10516110;28;20099;-61
2021/08/06 00:10:36;;;;;;;559.75;19.20;;;;;;;16.76;68.38;98853.56;10531175;28;20083;-61
2021/08/06 00:15:38;;;;;;;392.88;10.73;;;;;;;16.66;68.61;98849.38;10531752;28;20390;-61
2021/08/06 00:20:40;;;;;;;563.55;16.08;;;;;;;16.66;68.64;98839.66;10523842;28;20098;-61
2021/08/06 00:25:41;;;;;;;568.50;14.82;;;;;;;16.71;68.66;98839.19;10529979;28;20475;-61
2021/08/06 00:30:43;;;;;;;312.27;9.68;;;;;;;16.62;68.87;98840.97;10497356;28;20132;-61
2021/08/06 00:35:45;;;;;;;382.27;13.40;;;;;;;16.78;68.67;98840.22;10511143;28;20044;-61
2021/08/06 00:40:47;;;;;;;855.40;28.10;;;;;;;16.82;68.18;98831.81;10530087;28;20134;-61
2021/08/06 00:45:49;;;;;;;543.00;17.45;;;;;;;16.64;68.74;98822.31;10530418;28;20044;-60
2021/08/06 00:50:52;;;;;;;272.73;9.55;;;;;;;16.58;68.39;98822.94;10528749;28;20164;-60
2021/08/06 00:55:53;;;;;;;436.13;11.57;;;;;;;16.54;68.89;98819.78;10529933;28;20524;-61
2021/08/06 01:00:55;;;;;;;277.40;8.55;;;;;;;16.63;68.47;98815.41;10528591;28;20168;-61
2021/08/06 01:06:23;;;;;;;328.67;15.10;;;;;;;16.67;68.73;98814.09;10529788;28;20491;-61
2021/08/06 01:11:28;;;;;;;403.95;12.40;;;;;;;16.64;68.19;98823.16;10527653;28;20043;-61
2021/08/06 01:16:32;;;;;;;184.00;7.82;;;;;;;16.76;68.82;98819.25;10528523;28;20075;-61
2021/08/06 01:21:42;;;;;;;205.93;8.50;;;;;;;16.69;68.32;98822.69;10521001;28;20071;-60
2021/08/06 01:26:45;;;;;;;183.85;9.32;;;;;;;16.89;68.21;98818.81;10528618;28;20098;-61
2021/08/06 01:31:48;;;;;;;141.32;7.32;;;;;;;16.95;67.86;98823.47;10517440;28;20044;-61
2021/08/06 01:36:50;;;;;;;161.13;9.88;;;;;;;16.85;68.44;98813.00;10528200;28;20079;-61
2021/08/06 01:42:05;;;;;;;288.30;11.35;;;;;;;16.77;68.72;98812.97;10528414;28;20436;-60
2021/08/06 01:47:19;;;;;;;530.17;22.50;;;;;;;16.68;68.40;98806.00;10510417;28;20482;-60
2021/08/06 01:52:26;;;;;;;1022.78;35.20;;;;;;;16.61;68.33;98804.97;10527915;28;20127;-60
2021/08/06 01:57:30;;;;;;;370.90;14.93;;;;;;;16.54;68.43;98803.97;10527724;28;20551;-60
2021/08/06 02:02:35;;;;;;;296.27;12.55;;;;;;;16.52;68.23;98807.72;10519245;28;20119;-60
2021/08/06 02:07:37;;;;;;;997.20;35.03;;;;;;;16.42;68.37;98793.78;10524817;28;20056;-60
2021/08/06 02:12:39;;;;;;;814.80;31.55;;;;;;;16.26;68.60;98805.06;10536139;28;20044;-60
2021/08/06 02:17:41;;;;;;;88.03;11.60;;;;;;;16.15;69.01;98785.03;10535055;28;20075;-60
2021/08/06 02:22:45;;;;;;;270.73;22.48;;;;;;;16.24;68.83;98781.47;10521428;28;20040;-60
2021/08/06 02:27:49;;;;;;;53.35;10.68;;;;;;;16.32;68.74;98772.78;10535801;28;20532;-60
2021/08/06 02:32:51;;;;;;;590.05;27.27;;;;;;;16.45;67.95;98775.00;10525458;28;20048;-60
2021/08/06 02:37:53;;;;;;;229.77;10.80;;;;;;;16.38;68.05;98768.69;10536852;28;20099;-60
2021/08/06 02:42:55;;;;;;;215.35;10.68;;;;;;;16.19;68.28;98754.72;10542831;28;20127;-60
2021/08/06 02:47:56;;;;;;;26.08;6.50;;;;;;;16.12;68.41;98758.97;10543940;28;20080;-60
2021/08/06 02:52:58;;;;;;;196.50;13.98;;;;;;;16.07;68.59;98755.97;10541725;28;20063;-59
2021/08/06 02:58:00;;;;;;;321.08;24.83;;;;;;;16.16;68.58;98754.22;10542731;28;20509;-60
2021/08/06 03:03:02;;;;;;;218.02;21.25;;;;;;;16.23;68.69;98757.88;10537693;28;20135;-60
2021/08/06 03:08:04;;;;;;;116.25;11.32;;;;;;;16.15;68.52;98761.31;10537359;28;20130;-60
2021/08/06 03:13:05;;;;;;;14.60;9.00;;;;;;;16.28;68.90;98765.34;10509158;28;20119;-60
2021/08/06 03:18:07;;;;;;;28.15;10.32;;;;;;;16.52;68.42;98757.59;10535166;28;20083;-60
2021/08/06 03:23:09;;;;;;;30.50;13.07;;;;;;;16.49;68.44;98763.19;10519428;28;20091;-60
2021/08/06 03:28:10;;;;;;;45.95;12.80;;;;;;;16.55;68.49;98752.00;10529755;28;20135;-60
2021/08/06 03:33:12;;;;;;;123.65;15.30;;;;;;;16.58;68.12;98751.66;10531585;28;20495;-60
2021/08/06 03:38:22;;;;;;;43.25;7.57;;;;;;;16.50;68.27;98755.09;10532971;28;20493;-60
2021/08/06 03:43:23;;;;;;;77.80;14.20;;;;;;;16.50;68.09;98751.63;10532932;28;20123;-60
2021/08/06 03:48:25;;;;;;;11.55;6.47;;;;;;;16.43;68.26;98743.50;10533388;28;20473;-60
2021/08/06 03:53:27;;;;;;;17.13;8.07;;;;;;;16.53;68.25;98759.25;10532695;28;20044;-61
2021/08/06 03:58:29;;;;;;;15.48;10.18;;;;;;;16.43;68.12;98745.28;10532742;28;20136;-60
2021/08/06 04:03:30;;;;;;;14.93;10.00;;;;;;;16.39;67.99;98747.41;10525507;28;20535;-60
2021/08/06 04:08:36;;;;;;;12.65;8.80;;;;;;;16.49;68.44;98745.53;10531782;28;20067;-60
2021/08/06 04:13:37;;;;;;;14.30;9.50;;;;;;;16.50;68.00;98746.34;10532565;28;20102;-60
2021/08/06 04:18:39;;;;;;;12.82;7.43;;;;;;;16.35;68.38;98748.72;10531606;28;20253;-60
2021/08/06 04:23:41;;;;;;;19.98;11.65;;;;;;;16.39;68.63;98743.94;10532582;28;20079;-61
2021/08/06 04:28:42;;;;;;;12.73;8.13;;;;;;;16.31;68.15;98736.81;10530377;28;20048;-60
2021/08/06 04:33:44;;;;;;;17.40;10.90;;;;;;;16.32;68.36;98730.56;10509740;28;20101;-60
2021/08/06 04:38:46;;;;;;;13.07;9.38;;;;;;;16.28;68.74;98728.41;10530929;28;20130;-60
2021/08/06 04:43:47;;;;;;;8.38;6.18;;;;;;;16.32;68.17;98735.00;10531698;28;20152;-60
2021/08/06 04:48:53;;;;;;;18.85;10.90;;;;;;;16.18;68.70;98733.78;10530791;28;20131;-60
2021/08/06 04:53:55;;;;;;;11.98;7.78;;;;;;;16.19;68.56;98730.16;10530921;28;20110;-60
2021/08/06 04:58:57;;;;;;;11.40;7.47;;;;;;;16.17;69.05;98722.41;10529836;28;20113;-60
2021/08/06 05:03:58;;;;;;;17.17;9.85;;;;;;;16.25;68.87;98711.06;10529106;28;20044;-60
2021/08/06 05:09:00;;;;;;;10.80;8.10;;;;;;;16.27;68.61;98719.66;10529444;28;20155;-60
2021/08/06 05:14:03;;;;;;;8.90;6.30;;;;;;;16.29;68.34;98714.22;10530584;28;20500;-60
2021/08/06 05:19:04;;;;;;;19.15;10.50;;;;;;;16.51;68.46;98721.63;10529345;28;20377;-60
2021/08/06 05:24:06;;;;;;;13.40;8.73;;;;;;;16.60;68.19;98720.66;10529480;28;20084;-60
2021/08/06 05:29:08;;;;;;;12.70;9.45;;;;;;;16.70;68.35;98724.84;10514921;28;20048;-60
2021/08/06 05:34:09;;;;;;;13.27;7.95;;;;;;;16.67;68.19;98721.69;10499316;28;20462;-60
2021/08/06 05:39:11;;;;;;;11.98;6.85;;;;;;;16.74;67.95;98720.06;10527480;28;20044;-60
2021/08/06 05:44:13;;;;;;;15.25;9.93;;;;;;;16.56;68.58;98717.53;10529685;28;20515;-60
2021/08/06 05:49:15;;;;;;;7.75;5.43;;;;;;;16.55;68.56;98710.56;10528226;28;20127;-60
2021/08/06 05:54:16;;;;;;;11.43;7.25;;;;;;;16.62;68.25;98713.41;10529204;28;20140;-60
2021/08/06 05:59:18;;;;;;;16.60;8.68;;;;;;;16.79;68.09;98715.13;10528845;28;20091;-60
2021/08/06 06:04:20;;;;;;;8.35;6.38;;;;;;;17.06;67.49;98716.69;10523343;28;20091;-60
2021/08/06 06:09:22;;;;;;;9.15;6.70;;;;;;;17.18;67.28;98716.22;10510779;28;20135;-61
2021/08/06 06:14:23;;;;;;;14.05;6.30;;;;;;;17.25;66.88;98719.88;10528996;28;20064;-60
2021/08/06 06:19:25;;;;;;;4.63;4.00;;;;;;;17.47;66.47;98715.78;10537394;28;20410;-60
2021/08/06 06:24:27;;;;;;;6.78;5.20;;;;;;;17.89;65.65;98711.16;10519604;28;20131;-60
2021/08/06 06:29:29;;;;;;;8.82;5.72;;;;;;;18.15;65.45;98717.06;10508594;28;20076;-60
2021/08/06 06:34:31;;;;;;;5.97;3.50;;;;;;;18.33;64.65;98715.06;10532759;28;20044;-61
2021/08/06 06:39:33;;;;;;;8.38;4.82;;;;;;;18.42;64.93;98721.16;10536395;28;20139;-61
2021/08/06 06:44:34;;;;;;;6.32;4.07;;;;;;;18.92;64.21;98713.66;10519799;28;20072;-60
2021/08/06 06:49:36;;;;;;;6.28;3.88;;;;;;;19.70;62.08;98724.09;10503236;28;20377;-61
2021/08/06 06:54:38;;;;;;;6.82;3.90;;;;;;;20.22;61.28;98703.72;10522731;28;20573;-61
2021/08/06 06:59:40;;;;;;;3.63;2.28;;;;;;;20.19;60.49;98717.38;10533946;28;20090;-61
2021/08/06 07:04:42;;;;;;;5.15;3.00;;;;;;;20.69;60.21;98714.00;10517173;28;20123;-61
2021/08/06 07:09:44;;;;;;;4.00;1.90;;;;;;;20.93;59.59;98717.16;10522974;28;20075;-61
2021/08/06 07:14:46;;;;;;;3.38;1.90;;;;;;;20.67;60.70;98723.97;10531573;28;20119;-61
2021/08/06 07:19:47;;;;;;;5.82;1.60;;;;;;;20.42;61.00;98720.75;10531902;28;20466;-61
2021/08/06 07:24:49;;;;;;;3.90;1.50;;;;;;;20.55;60.46;98731.56;10529523;28;20460;-60
2021/08/06 07:29:51;;;;;;;3.75;1.25;;;;;;;20.95;59.31;98731.09;10528222;28;20048;-61
2021/08/06 07:34:52;;;;;;;4.47;1.40;;;;;;;21.09;58.97;98735.56;10531791;28;20059;-61
2021/08/06 07:39:55;;;;;;;4.80;1.40;;;;;;;21.30;58.23;98736.59;10530418;28;20036;-61
2021/08/06 07:44:56;;;;;;;4.13;1.40;;;;;;;21.27;57.79;98745.78;10511979;28;20071;-60
2021/08/06 07:49:58;;;;;;;2.33;1.40;;;;;;;21.25;57.88;98744.31;10521319;28;20123;-60
2021/08/06 07:55:00;;;;;;;4.35;1.27;;;;;;;21.17;57.77;98749.75;10500589;28;20083;-60
2021/08/06 08:00:03;;;;;;;2.88;1.30;;;;;;;21.01;57.68;98766.72;10531161;28;20051;-59
2021/08/06 08:05:07;;;;;;;2.67;1.30;;;;;;;20.94;57.94;98768.50;10506187;28;20064;-60
2021/08/06 08:10:09;;;;;;;1.70;1.20;;;;;;;20.92;58.09;98763.38;10530176;28;20143;-59
2021/08/06 08:15:11;;;;;;;2.97;1.20;;;;;;;21.13;57.10;98764.44;10528832;28;20074;-60
2021/08/06 08:20:14;;;;;;;2.08;1.23;;;;;;;21.49;55.43;98759.97;10524404;28;20040;-60
2021/08/06 08:25:16;;;;;;;3.80;1.30;;;;;;;22.37;53.95;98769.13;10515005;28;20044;-60
2021/08/06 08:30:18;;;;;;;2.60;1.20;;;;;;;23.39;51.77;98764.75;10528877;28;20072;-59
2021/08/06 08:35:19;;;;;;;3.25;1.20;;;;;;;24.08;50.08;98759.97;10501101;28;20041;-60
2021/08/06 08:40:21;;;;;;;3.97;1.30;;;;;;;24.53;48.49;98758.28;10525489;28;20052;-59
2021/08/06 08:45:23;;;;;;;3.42;1.35;;;;;;;24.30;47.85;98753.38;10516145;28;20079;-60
2021/08/06 08:50:26;;;;;;;2.95;1.17;;;;;;;24.09;48.39;98765.09;10527039;28;20077;-60
2021/08/06 08:55:28;;;;;;;5.03;1.50;;;;;;;24.75;46.72;98749.00;10489134;28;20114;-60
2021/08/06 09:00:30;;;;;;;2.85;1.30;;;;;;;24.27;46.37;98765.28;10525411;28;20101;-60
2021/08/06 09:05:33;;;;;;;3.90;1.48;;;;;;;24.15;46.96;98760.78;10496527;28;20076;-60
2021/08/06 09:10:41;;;;;;;4.30;1.42;;;;;;;24.21;46.29;98752.75;10527875;28;20137;-60
2021/08/06 09:15:44;;;;;;;3.20;1.60;;;;;;;24.23;46.18;98756.03;10514558;28;20044;-60
2021/08/06 09:20:46;;;;;;;3.55;1.38;;;;;;;23.93;47.22;98753.97;10506543;28;20052;-60
2021/08/06 09:25:47;;;;;;;2.10;1.40;;;;;;;24.54;45.82;98760.72;10440232;28;20079;-59
2021/08/06 09:30:51;;;;;;;3.17;1.42;;;;;;;24.09;46.14;98767.78;10424073;28;20077;-59
2021/08/06 09:36:09;;;;;;;3.88;1.75;;;;;;;24.17;45.13;98761.38;10441226;28;20560;-59
2021/08/06 09:41:39;;;;;;;3.58;1.58;;;;;;;24.15;45.23;98766.13;10475612;28;20432;-61
2021/08/06 09:46:42;;;;;;;3.47;1.55;;;;;;;23.80;46.43;98760.13;10445467;28;20099;-60
2021/08/06 09:51:48;;;;;;;4.22;1.80;;;;;;;23.04;49.04;98771.19;10428681;28;20048;-60
2021/08/06 09:57:04;;;;;;;4.28;1.88;;;;;;;22.66;52.06;98779.56;10425974;28;20460;-60
2021/08/06 10:02:14;;;;;;;3.47;1.70;;;;;;;22.38;51.09;98777.94;10423818;28;20048;-60
2021/08/06 10:07:16;;;;;;;;;;;;;;;21.50;53.71;98780.22;10411816;28;20272;-60
2021/08/06 10:12:19;;;;;;;3.97;1.67;;;;;;;22.19;52.21;98782.13;10426109;28;20015;-59
2021/08/06 10:17:21;;;;;;;4.05;1.52;;;;;;;23.12;49.67;98773.69;10425429;28;20054;-59
2021/08/06 10:22:23;;;;;;;4.82;1.35;;;;;;;24.32;47.26;98772.69;10415886;28;20049;-60
2021/08/06 10:27:27;;;;;;;4.55;1.40;;;;;;;24.57;46.17;98771.00;10441081;28;20577;-60
2021/08/06 10:32:31;;;;;;;2.38;1.23;;;;;;;24.23;45.13;98780.09;10441656;28;20049;-60
2021/08/06 10:37:58;;;;;;;3.10;1.38;;;;;;;24.27;44.78;98767.97;10432961;28;20090;-59
2021/08/06 10:43:32;;;;;;;2.63;1.35;;;;;;;24.18;44.00;98771.88;10432893;28;20048;-60
2021/08/06 10:48:40;;;;;;;3.47;1.35;;;;;;;24.09;44.61;98786.47;10441579;28;20092;-59
2021/08/06 10:53:47;;;;;;;3.65;1.45;;;;;;;24.23;43.77;98784.59;10436881;28;20095;-59
2021/08/06 10:58:52;;;;;;;3.83;1.50;;;;;;;24.52;43.03;98778.84;10435947;28;20517;-59
2021/08/06 11:03:56;;;;;;;3.03;1.35;;;;;;;24.74;42.66;98774.91;10448796;28;20127;-59
2021/08/06 11:08:58;;;;;;;3.03;1.40;;;;;;;25.25;41.79;98774.09;10446441;28;20144;-60
2021/08/06 11:14:00;;;;;;;3.70;1.40;;;;;;;25.58;41.24;98764.88;10449395;28;20073;-59
2021/08/06 11:19:02;;;;;;;5.47;1.48;;;;;;;25.45;40.64;98762.28;10439856;28;20048;-60
2021/08/06 11:24:17;;;;;;;3.38;1.38;;;;;;;25.36;39.72;98752.88;10441723;28;20122;-60
2021/08/06 11:29:19;;;;;;;3.33;1.40;;;;;;;25.58;39.29;98748.81;10445043;28;20045;-60
2021/08/06 11:34:21;;;;;;;1.92;1.20;;;;;;;25.15;40.37;98742.44;10448255;28;20071;-60
2021/08/06 11:39:23;;;;;;;4.35;1.25;;;;;;;25.23;40.46;98755.56;10434085;28;20048;-60
2021/08/06 11:44:24;;;;;;;4.32;1.15;;;;;;;24.93;39.40;98765.19;10446140;28;20093;-60
2021/08/06 11:49:26;;;;;;;3.05;1.17;;;;;;;24.63;40.09;98769.34;10449270;28;20426;-59
2021/08/06 11:54:28;;;;;;;4.53;1.30;;;;;;;24.23;41.02;98769.41;10445386;28;20144;-59
2021/08/06 11:59:31;;;;;;;4.20;1.40;;;;;;;24.23;40.80;98761.38;10413615;28;20049;-60
2021/08/06 12:04:34;;;;;;;3.90;1.38;;;;;;;24.72;40.56;98746.72;10437270;28;20417;-60
2021/08/06 12:09:36;;;;;;;5.72;1.55;;;;;;;24.91;40.20;98757.38;10445307;28;20056;-60
2021/08/06 12:14:38;;;;;;;3.63;1.40;;;;;;;24.69;40.66;98763.16;10444977;28;20504;-60
2021/08/06 12:19:46;;;;;;;3.67;1.10;;;;;;;24.85;39.81;98752.88;10438432;28;20500;-59
2021/08/06 12:24:52;;;;;;;3.13;1.25;;;;;;;24.91;39.42;98756.53;10445686;28;20053;-59
2021/08/06 12:29:54;;;;;;;3.78;1.27;;;;;;;24.89;39.55;98751.41;10444304;28;20053;-60
2021/08/06 12:34:57;;;;;;;3.13;1.20;;;;;;;24.68;39.13;98753.50;10425188;28;20116;-60
2021/08/06 12:39:59;;;;;;;3.45;1.10;;;;;;;24.19;39.66;98764.69;10439030;28;20143;-60
2021/08/06 12:45:08;;;;;;;3.28;1.35;;;;;;;24.45;39.01;98774.53;10457755;28;20036;-59
2021/08/06 12:50:24;;;;;;;2.03;1.08;;;;;;;24.27;39.71;98773.31;10430725;28;20136;-59
2021/08/06 12:55:27;;;;;;;2.00;1.10;;;;;;;24.10;39.48;98777.41;10433954;28;20119;-59
2021/08/06 13:00:30;;;;;;;2.75;1.10;;;;;;;24.14;39.56;98780.50;10416512;28;20063;-60
2021/08/06 13:05:58;;;;;;;3.70;1.15;;;;;;;24.22;39.16;98782.97;10428642;28;20076;-59
2021/08/06 13:11:02;;;;;;;2.88;1.17;;;;;;;24.46;38.73;98777.00;10423780;28;20136;-59
2021/08/06 13:16:05;;;;;;;2.58;0.90;;;;;;;24.38;39.09;98771.03;10443235;28;20052;-60
2021/08/06 13:21:10;;;;;;;5.03;1.48;;;;;;;24.31;39.25;98786.28;10442753;28;20084;-60
2021/08/06 13:26:11;;;;;;;2.10;1.20;;;;;;;24.19;39.92;98797.56;10443102;28;20076;-59
2021/08/06 13:31:13;;;;;;;2.30;1.20;;;;;;;24.43;39.54;98781.94;10433955;28;20136;-60
2021/08/06 13:36:15;;;;;;;2.28;1.10;;;;;;;24.75;39.82;98792.59;10436507;28;20098;-59
2021/08/06 13:41:17;;;;;;;2.38;1.10;;;;;;;24.65;39.61;98794.03;10430075;28;20136;-60
2021/08/06 13:46:19;;;;;;;3.25;1.30;;;;;;;24.66;39.50;98796.50;10440376;28;20446;-59
2021/08/06 13:51:21;;;;;;;3.83;1.27;;;;;;;24.35;39.74;98800.84;10442935;28;20060;-59
2021/08/06 13:56:23;;;;;;;2.22;1.15;;;;;;;24.45;39.45;98795.91;10441925;28;20461;-60
2021/08/06 14:01:25;;;;;;;3.58;1.13;;;;;;;24.53;39.62;98801.84;10411270;28;20152;-60
2021/08/06 14:06:27;;;;;;;3.25;1.30;;;;;;;24.40;39.60;98796.53;10426371;28;20049;-59
2021/08/06 14:11:29;;;;;;;2.90;1.40;;;;;;;24.38;39.98;98797.75;10443348;28;20472;-59
2021/08/06 14:16:32;;;;;;;2.53;1.23;;;;;;;24.26;40.03;98809.09;10443443;28;20083;-59
2021/08/06 14:21:34;;;;;;;3.45;1.27;;;;;;;23.89;40.69;98804.31;10441375;28;20413;-60
2021/08/06 14:26:38;;;;;;;2.60;1.17;;;;;;;23.82;40.94;98811.47;10443011;28;20251;-59
2021/08/06 14:31:40;;;;;;;3.03;1.20;;;;;;;23.83;41.25;98822.97;10432920;28;20107;-59
2021/08/06 14:36:42;;;;;;;2.22;1.30;;;;;;;23.74;40.95;98817.00;10448912;28;20080;-59
2021/08/06 14:41:45;;;;;;;3.67;1.40;;;;;;;23.54;41.28;98829.47;10448264;28;20556;-59
2021/08/06 14:46:48;;;;;;;6.55;1.48;;;;;;;23.48;41.54;98827.59;10449452;28;20048;-60
2021/08/06 14:51:51;;;;;;;2.67;1.38;;;;;;;23.18;42.40;98831.56;10448907;28;20084;-59
2021/08/06 14:56:54;;;;;;;2.30;1.38;;;;;;;23.02;42.51;98829.22;10443616;28;20110;-59
2021/08/06 15:01:58;;;;;;;2.70;1.30;;;;;;;23.06;42.32;98817.16;10415010;28;20045;-59
2021/08/06 15:07:00;;;;;;;3.15;1.20;;;;;;;23.28;41.46;98808.84;10443193;28;20114;-59
2021/08/06 15:12:03;;;;;;;2.33;1.40;;;;;;;23.27;41.83;98815.19;10448787;28;20077;-59
2021/08/06 15:17:06;;;;;;;7.43;1.40;;;;;;;23.50;40.64;98825.56;10449024;28;20414;-60
2021/08/06 15:22:08;;;;;;;4.95;1.40;;;;;;;23.63;40.52;98825.63;10426711;28;20045;-59
2021/08/06 15:27:16;;;;;;;4.63;1.40;;;;;;;23.61;40.85;98829.50;10442223;28;20044;-58
2021/08/06 15:32:18;;;;;;;3.88;1.20;;;;;;;23.76;39.88;98825.63;10449746;28;20125;-60
2021/08/06 15:37:20;;;;;;;2.55;1.15;;;;;;;23.43;40.66;98827.41;10420541;28;20501;-60
2021/08/06 15:42:22;;;;;;;1.60;1.17;;;;;;;23.67;39.99;98832.19;10408522;28;20203;-59
2021/08/06 15:47:24;;;;;;;3.72;1.33;;;;;;;23.58;40.46;98844.06;10448936;28;20552;-60
2021/08/06 15:52:25;;;;;;;2.75;1.30;;;;;;;23.29;40.68;98845.16;10422069;28;20128;-59
2021/08/06 15:57:27;;;;;;;2.20;1.33;;;;;;;23.36;40.28;98850.53;10430157;28;20191;-60
2021/08/06 16:02:30;;;;;;;3.10;1.40;;;;;;;23.24;40.56;98852.94;10410937;28;20214;-59
2021/08/06 16:07:32;;;;;;;2.90;1.40;;;;;;;23.00;40.42;98845.44;10417943;28;20049;-61
2021/08/06 16:12:34;;;;;;;1.60;1.20;;;;;;;22.77;41.25;98850.22;10468941;28;20514;-60
2021/08/06 16:17:36;;;;;;;3.13;1.25;;;;;;;22.87;41.47;98856.00;10464340;28;20041;-60
2021/08/06 16:22:40;;;;;;;1.65;1.17;;;;;;;23.08;41.54;98850.63;10446908;28;20059;-60
2021/08/06 16:27:42;;;;;;;2.67;1.33;;;;;;;23.36;41.15;98845.19;10448004;28;20056;-60
2021/08/06 16:32:44;;;;;;;2.05;1.30;;;;;;;23.20;41.03;98845.53;10433033;28;20323;-60
2021/08/06 16:37:46;;;;;;;2.45;1.20;;;;;;;22.79;42.05;98845.50;10442401;28;20056;-59
2021/08/06 16:42:49;;;;;;;3.53;1.45;;;;;;;22.49;43.31;98850.19;10436994;28;20140;-59
2021/08/06 16:47:51;;;;;;;2.55;1.40;;;;;;;22.50;43.16;98854.50;10405379;28;20137;-60
2021/08/06 16:52:53;;;;;;;2.55;1.25;;;;;;;22.33;43.05;98854.97;10403245;28;20148;-59
2021/08/06 16:57:55;;;;;;;2.75;1.10;;;;;;;22.17;43.08;98852.59;10424445;28;20059;-59
2021/08/06 17:02:57;;;;;;;3.47;1.02;;;;;;;22.11;42.76;98851.50;10411474;28;20869;-59
2021/08/06 17:07:59;;;;;;;4.30;1.33;;;;;;;22.14;43.06;98855.63;10420844;28;20053;-59
2021/08/06 17:13:01;;;;;;;2.28;1.20;;;;;;;22.10;43.27;98847.19;10442247;28;20136;-59
2021/08/06 17:18:03;;;;;;;2.58;1.15;;;;;;;22.12;43.43;98853.16;10442827;28;20072;-59
2021/08/06 17:23:05;;;;;;;3.95;1.20;;;;;;;21.92;43.51;98849.44;10429722;28;20413;-59
2021/08/06 17:28:07;;;;;;;2.00;1.08;;;;;;;22.10;43.55;98851.69;10430270;28;20128;-60
2021/08/06 17:33:09;;;;;;;2.58;1.20;;;;;;;22.31;43.20;98847.16;10440883;28;20131;-61
2021/08/06 17:38:10;;;;;;;2.22;1.00;;;;;;;22.46;43.15;98863.06;10415060;28;20120;-60
2021/08/06 17:43:13;;;;;;;2.95;1.05;;;;;;;22.58;42.84;98846.34;10405503;28;20489;-61
2021/08/06 17:48:15;;;;;;;2.13;0.90;;;;;;;22.44;43.18;98857.94;10440392;28;20627;-61
2021/08/06 17:53:17;;;;;;;2.60;1.27;;;;;;;22.32;43.16;98859.47;10444947;28;20080;-60
2021/08/06 17:58:20;;;;;;;3.40;1.15;;;;;;;22.04;43.55;98863.09;10441912;28;20434;-60
2021/08/06 18:03:24;;;;;;;8.63;2.03;;;;;;;21.98;43.80;98866.50;10422507;28;20049;-59
2021/08/06 18:08:26;;;;;;;3.08;0.90;;;;;;;21.68;44.27;98871.91;10440476;28;20077;-60
2021/08/06 18:13:28;;;;;;;2.38;1.05;;;;;;;21.45;44.98;98875.72;10423258;28;20474;-60
2021/08/06 18:18:30;;;;;;;5.03;1.75;;;;;;;21.28;45.20;98883.06;10436481;28;20148;-60
2021/08/06 18:23:32;;;;;;;2.40;1.00;;;;;;;21.13;45.59;98886.75;10423069;28;20481;-59
2021/08/06 18:28:34;;;;;;;3.10;1.00;;;;;;;21.07;46.00;98889.13;10442696;28;20128;-60
2021/08/06 18:33:36;;;;;;;3.38;1.05;;;;;;;20.90;46.69;98900.13;10444356;28;20077;-59
2021/08/06 18:38:37;;;;;;;3.35;1.20;;;;;;;20.79;47.60;98905.84;10442990;28;20132;-60
2021/08/06 18:43:40;;;;;;;4.85;1.55;;;;;;;20.38;47.09;98905.38;10443915;28;20368;-60
2021/08/06 18:48:42;;;;;;;4.18;1.33;;;;;;;20.20;48.02;98902.19;10443887;28;20128;-60
2021/08/06 18:53:44;;;;;;;2.95;1.10;;;;;;;20.01;47.76;98919.41;10439443;28;20613;-61
2021/08/06 18:58:46;;;;;;;2.28;1.10;;;;;;;19.90;48.13;98921.66;10442309;28;20129;-60
2021/08/06 19:03:48;;;;;;;3.03;1.40;;;;;;;19.72;48.94;98916.59;10434671;28;20041;-60
2021/08/06 19:08:49;;;;;;;3.40;1.30;;;;;;;19.58;49.07;98919.13;10426474;28;20144;-60
2021/08/06 19:13:51;;;;;;;5.60;1.40;;;;;;;19.48;49.93;98925.47;10441431;28;20140;-59
2021/08/06 19:18:53;;;;;;;1.70;1.05;;;;;;;19.39;50.44;98929.16;10425322;28;20080;-60
2021/08/06 19:23:55;;;;;;;3.28;1.40;;;;;;;19.34;50.38;98942.09;10415516;28;20140;-60
2021/08/06 19:28:59;;;;;;;2.95;1.20;;;;;;;19.24;51.54;98945.94;10445583;28;20139;-61
2021/08/06 19:34:01;;;;;;;4.30;1.30;;;;;;;19.01;51.88;98958.25;10448303;28;20412;-61
2021/08/06 19:39:04;;;;;;;2.42;1.40;;;;;;;18.82;52.65;98954.13;10483070;28;20405;-61
2021/08/06 19:44:06;;;;;;;5.65;1.40;;;;;;;18.67;52.98;98961.06;10446907;28;20041;-61
2021/08/06 19:49:07;;;;;;;5.80;1.50;;;;;;;18.51;53.86;98963.72;10410269;28;20068;-61
2021/08/06 19:54:09;;;;;;;3.60;1.40;;;;;;;18.27;54.77;98967.19;10469055;28;20140;-61
2021/08/06 19:59:11;;;;;;;6.50;1.40;;;;;;;18.22;54.92;98971.31;10451051;28;20072;-61
2021/08/06 20:04:13;;;;;;;7.13;1.42;;;;;;;18.05;55.56;98970.44;10412183;28;20132;-61
2021/08/06 20:09:15;;;;;;;6.00;1.27;;;;;;;17.95;55.68;98966.25;10437292;28;20149;-61
2021/08/06 20:14:16;;;;;;;7.25;1.60;;;;;;;17.88;55.95;98960.78;10449192;28;20141;-61
2021/08/06 20:19:18;;;;;;;6.10;1.75;;;;;;;17.69;56.36;98961.88;10449619;28;20048;-61
2021/08/06 20:24:20;;;;;;;6.13;2.60;;;;;;;17.58;57.02;98972.75;10449060;28;20139;-61
2021/08/06 20:29:22;;;;;;;7.22;2.88;;;;;;;17.51;57.41;98968.25;10448479;28;20539;-61
2021/08/06 20:34:24;;;;;;;4.53;2.75;;;;;;;17.42;57.63;98972.69;10446628;28;20072;-61
2021/08/06 20:39:26;;;;;;;6.80;3.10;;;;;;;17.21;58.74;98972.19;10415208;28;20092;-61
2021/08/06 20:44:28;;;;;;;7.05;2.63;;;;;;;17.04;59.20;98981.00;10407127;28;20140;-61
2021/08/06 20:49:30;;;;;;;9.38;2.50;;;;;;;16.94;59.30;98985.56;10406734;28;20080;-61
2021/08/06 20:54:31;;;;;;;4.50;1.88;;;;;;;16.91;59.25;98985.88;10439845;28;20144;-61
2021/08/06 20:59:33;;;;;;;4.15;1.75;;;;;;;16.82;59.06;98994.72;10446813;28;20076;-62
2021/08/06 21:04:35;;;;;;;6.93;2.00;;;;;;;16.78;59.27;98996.00;10447152;28;20084;-61
2021/08/06 21:09:37;;;;;;;7.32;2.67;;;;;;;16.63;59.13;98981.72;10446423;28;20132;-61
2021/08/06 21:14:40;;;;;;;7.72;3.50;;;;;;;16.35;60.36;98994.09;10407502;28;20140;-61
2021/08/06 21:19:41;;;;;;;9.07;2.45;;;;;;;16.41;60.28;99003.22;10405412;28;20209;-61
2021/08/06 21:24:43;;;;;;;9.82;2.75;;;;;;;16.29;60.50;98997.34;10404625;28;20120;-61
2021/08/06 21:29:45;;;;;;;6.75;2.10;;;;;;;16.29;60.50;98994.72;10405935;28;20128;-61
2021/08/06 21:34:47;;;;;;;7.40;2.50;;;;;;;16.11;60.75;98978.88;10421343;28;20141;-61
2021/08/06 21:39:49;;;;;;;7.50;2.30;;;;;;;15.84;61.40;98978.91;10406089;28;20041;-61
2021/08/06 21:44:51;;;;;;;6.55;2.22;;;;;;;15.80;61.75;98988.09;10443933;28;20092;-61
2021/08/06 21:49:52;;;;;;;6.15;1.80;;;;;;;15.84;61.70;98978.91;10445307;28;20131;-61
2021/08/06 21:54:54;;;;;;;7.05;1.73;;;;;;;15.91;61.49;98979.16;10445871;28;20103;-61
2021/08/06 21:59:56;;;;;;;8.40;2.45;;;;;;;15.92;61.15;98983.44;10445816;28;20496;-61
2021/08/06 22:04:58;;;;;;;4.72;1.70;;;;;;;15.57;61.83;98989.44;10445394;28;20072;-61
2021/08/06 22:09:59;;;;;;;3.35;1.80;;;;;;;15.49;61.48;98986.72;10414905;28;20072;-61
2021/08/06 22:15:02;;;;;;;4.55;1.70;;;;;;;15.25;61.93;98986.34;10428582;28;20046;-60
2021/08/06 22:20:05;;;;;;;6.90;1.60;;;;;;;15.40;61.67;98977.88;10403683;28;20053;-61
2021/08/06 22:25:08;;;;;;;5.00;1.75;;;;;;;15.27;61.91;98971.25;10404140;28;20073;-61
2021/08/06 22:30:10;;;;;;;4.90;1.70;;;;;;;15.37;62.04;98974.66;10404132;28;20252;-61
2021/08/06 22:35:12;;;;;;;6.18;2.38;;;;;;;15.27;61.99;98973.88;10404035;28;20079;-60
2021/08/06 22:40:14;;;;;;;5.82;2.42;;;;;;;14.98;62.86;98973.97;10435884;28;20548;-61
2021/08/06 22:45:16;;;;;;;6.38;2.20;;;;;;;14.96;63.32;98981.16;10444759;28;20084;-61
2021/08/06 22:50:18;;;;;;;7.55;3.05;;;;;;;15.10;62.80;98972.00;10425067;28;20534;-61
2021/08/06 22:55:19;;;;;;;5.07;2.08;;;;;;;15.14;63.20;98979.47;10413956;28;20049;-61
2021/08/06 23:00:21;;;;;;;12.02;2.40;;;;;;;15.21;63.20;98985.00;10411064;28;20143;-62
2021/08/06 23:05:23;;;;;;;10.35;3.58;;;;;;;15.17;63.41;98988.88;10411136;28;20049;-61
2021/08/06 23:10:25;;;;;;;9.13;3.53;;;;;;;15.06;63.23;98986.44;10449234;28;20103;-61
2021/08/06 23:15:27;;;;;;;5.60;2.92;;;;;;;14.92;63.38;98989.53;10452074;28;20132;-61
2021/08/06 23:20:28;;;;;;;7.13;2.72;;;;;;;14.76;63.87;98989.28;10449172;28;20144;-61